| Date | Time | Temp. (oF) | Dew Point (oF) | Rel. Hum. (%) | Press. (in.) | Wind Dir. | Wind Speed (mph) | Hourly Rainfall (in.) |
|
|---|---|---|---|---|---|---|---|---|---|
| 1 | 03/18 | 00:00 | 34 | 10 | 37 | 30.04 | NNW | 14 | 0.00 |
| 2 | 03/17 | 23:00 | 36 | 10 | 35 | 30.01 | N | 12 | 0.00 |
| 3 | 03/17 | 22:00 | 37 | 13 | 38 | 29.97 | NNE | 8 | 0.00 |
| 4 | 03/17 | 21:00 | 39 | 14 | 36 | 29.93 | N | 7 | 0.00 |
| 5 | 03/17 | 20:00 | 41 | 16 | 37 | 29.87 | WNW | 8 | 0.00 |
| 6 | 03/17 | 19:00 | 44 | 21 | 40 | 29.83 | N | 12 | 0.00 |
| 7 | 03/17 | 18:00 | 48 | 27 | 45 | 29.76 | N | 19 | 0.00 |
| 8 | 03/17 | 17:00 | 51 | 27 | 41 | 29.73 | WNW | 11 | 0.00 |
| 9 | 03/17 | 16:00 | 56 | 31 | 39 | 29.69 | W | 14 | 0.00 |
| 10 | 03/17 | 15:00 | 58 | 34 | 41 | 29.67 | WNW | 20 | 0.00 |
| 11 | 03/17 | 14:00 | 60 | 38 | 45 | 29.65 | NW | 21 | 0.00 |
| 12 | 03/17 | 13:00 | 59 | 42 | 54 | 29.64 | W | 16 | 0.00 |
| 13 | 03/17 | 12:00 | 60 | 46 | 60 | 29.62 | N | 9 | 0.00 |
| 14 | 03/17 | 11:00 | 61 | 46 | 59 | 29.62 | W | 13 | 0.00 |
| 15 | 03/17 | 10:00 | 59 | 45 | 60 | 29.61 | NNW | 7 | 0.00 |
| 16 | 03/17 | 09:00 | 46 | 41 | 83 | 29.60 | NE | 2 | 0.00 |
| 17 | 03/17 | 08:00 | 44 | 39 | 83 | 29.59 | NE | 0 | 0.00 |
| 18 | 03/17 | 07:00 | 44 | 38 | 82 | 29.59 | NE | 0 | 0.00 |
| 19 | 03/17 | 06:00 | 46 | 38 | 76 | 29.61 | NE | 0 | 0.00 |
| 20 | 03/17 | 05:00 | 44 | 39 | 84 | 29.61 | SSW | 4 | 0.00 |
| 21 | 03/17 | 04:00 | 42 | 38 | 89 | 29.66 | WNW | 0 | 0.00 |
| 22 | 03/17 | 03:00 | 42 | 38 | 87 | 29.70 | S | 0 | 0.00 |
| 23 | 03/17 | 02:00 | 43 | 39 | 86 | 29.72 | SSE | 0 | 0.00 |
| 24 | 03/17 | 01:00 | 43 | 39 | 87 | 29.75 | S | 0 | 0.00 |